Aragonborg — PCGK — position and weather

sailwx.info

Track history (hours):
 
Tides and Currents Weather Stations Pressure Air Temp Water Temp Dewpoint Dewpoint Depression Visibility Wind Speed Wind Dir Waves Ship Positions

Aragonborg

Last reported at 2018-Feb-21 21:41 UTC. Time now 2018-Feb-23 12:44 UTC.
Position N 37°11' W 011°10'.

Length 143 m; draft 8.7 m.

Type: Ship. MMSI: 245953000.

Date/timePositionNaut miles runAvg speedWind from/ knotsBaromVisibWave heightAir tempDewpointWater temp
2018-Feb-21 21:41N 37°11' W 011°10'311.6
2018-Feb-21 21:27N 37°10' W 011°07'611.7
2018-Feb-21 20:58N 37°07' W 011°01'611.6
2018-Feb-21 20:26N 37°04' W 010°54'26312.4
2018-Feb-20 23:10N 35°58' W 005°37'1 7.6
2018-Feb-20 23:00N 35°58' W 005°36'611.1
2018-Feb-20 22:30N 35°60' W 005°29'4 8.6
2018-Feb-20 22:00N 36°02' W 005°25'5 9.9
2018-Feb-20 21:30N 36°07' W 005°23'1 1.7
2018-Feb-20 20:54N 36°07' W 005°21'0 0.0
2018-Feb-20 20:13N 36°07' W 005°21'0 0.1
2018-Feb-20 19:55N 36°07' W 005°21'0 0.0
2018-Feb-20 19:25N 36°07' W 005°21'0 0.1
2018-Feb-20 18:56N 36°07' W 005°21'0 0.1
2018-Feb-20 16:45N 36°07' W 005°21'0 0.1
2018-Feb-20 16:30N 36°07' W 005°21'0 0.1
2018-Feb-20 16:00N 36°07' W 005°21'0 0.1
2018-Feb-20 15:29N 36°07' W 005°21'0 0.0
2018-Feb-20 14:56N 36°07' W 005°21'0 0.0
2018-Feb-20 14:29N 36°07' W 005°21'0 0.0
2018-Feb-20 13:59N 36°07' W 005°21'0 0.0
2018-Feb-20 13:14N 36°07' W 005°21'0 0.0
2018-Feb-20 11:49N 36°07' W 005°21'0 0.1
2018-Feb-20 10:17N 36°07' W 005°21'0 0.1
2018-Feb-20 09:58N 36°07' W 005°21'2 3.9
2018-Feb-20 09:30N 36°05' W 005°21'2 4.0
2018-Feb-20 09:00N 36°05' W 005°18'  
Track history (hours):
 
Tides and Currents Weather Stations Pressure Air Temp Water Temp Dewpoint Dewpoint Depression Visibility Wind Speed Wind Dir Waves Ship Positions

Aragonborg

Last reported at 2018-Feb-21 21:41 UTC. Time now 2018-Feb-23 12:44 UTC.
Position N 37°11' W 011°10'.

Length 143 m; draft 8.7 m.

Type: Ship. MMSI: 245953000.

Date/timePositionNaut miles runAvg speedWind from/ knotsBaromVisibWave heightAir tempDewpointWater temp
2018-Feb-21 21:41N 37°11' W 011°10'311.6
2018-Feb-21 21:27N 37°10' W 011°07'611.7
2018-Feb-21 20:58N 37°07' W 011°01'611.6
2018-Feb-21 20:26N 37°04' W 010°54'26312.4
2018-Feb-20 23:10N 35°58' W 005°37'1 7.6
2018-Feb-20 23:00N 35°58' W 005°36'611.1
2018-Feb-20 22:30N 35°60' W 005°29'4 8.6
2018-Feb-20 22:00N 36°02' W 005°25'5 9.9
2018-Feb-20 21:30N 36°07' W 005°23'1 1.7
2018-Feb-20 20:54N 36°07' W 005°21'0 0.0
2018-Feb-20 20:13N 36°07' W 005°21'0 0.1
2018-Feb-20 19:55N 36°07' W 005°21'0 0.0
2018-Feb-20 19:25N 36°07' W 005°21'0 0.1
2018-Feb-20 18:56N 36°07' W 005°21'0 0.1
2018-Feb-20 16:45N 36°07' W 005°21'0 0.1
2018-Feb-20 16:30N 36°07' W 005°21'0 0.1
2018-Feb-20 16:00N 36°07' W 005°21'0 0.1
2018-Feb-20 15:29N 36°07' W 005°21'0 0.0
2018-Feb-20 14:56N 36°07' W 005°21'0 0.0
2018-Feb-20 14:29N 36°07' W 005°21'0 0.0
2018-Feb-20 13:59N 36°07' W 005°21'0 0.0
2018-Feb-20 13:14N 36°07' W 005°21'0 0.0
2018-Feb-20 11:49N 36°07' W 005°21'0 0.1
2018-Feb-20 10:17N 36°07' W 005°21'0 0.1
2018-Feb-20 09:58N 36°07' W 005°21'2 3.9
2018-Feb-20 09:30N 36°05' W 005°21'2 4.0
2018-Feb-20 09:00N 36°05' W 005°18'  

Dump ship's entire track history